createdAt,value
2022-10-01T00:04:29.396Z,3.40
2022-10-01T00:09:34.055Z,3.03
2022-10-01T00:14:39.139Z,3.55
2022-10-01T00:19:40.829Z,3.47
2022-10-01T00:24:42.621Z,3.10
2022-10-01T00:29:45.200Z,2.67
2022-10-01T00:34:47.450Z,3.30
2022-10-01T00:39:49.052Z,3.08
2022-10-01T00:44:51.244Z,3.20
2022-10-01T00:50:07.996Z,2.83
2022-10-01T00:55:23.567Z,2.88
2022-10-01T01:00:25.265Z,2.40
2022-10-01T01:05:27.059Z,3.03
2022-10-01T01:10:37.436Z,3.20
2022-10-01T01:16:00.621Z,2.90
2022-10-01T01:21:13.184Z,3.15
2022-10-01T01:26:27.932Z,2.97
2022-10-01T01:31:36.228Z,2.65
2022-10-01T01:36:43.548Z,2.70
2022-10-01T01:41:51.268Z,3.38
2022-10-01T01:46:56.790Z,3.55
2022-10-01T01:52:13.545Z,3.60
2022-10-01T01:57:18.766Z,3.75
2022-10-01T02:02:26.536Z,3.78
2022-10-01T02:07:53.923Z,4.00
2022-10-01T02:13:32.895Z,3.90
2022-10-01T02:18:57.373Z,4.13
2022-10-01T02:24:02.645Z,3.70
2022-10-01T02:29:09.661Z,4.60
2022-10-01T02:34:19.967Z,4.55
2022-10-01T02:39:23.820Z,4.30
2022-10-01T02:44:38.064Z,4.88
2022-10-01T02:49:41.363Z,4.45
2022-10-01T02:54:47.033Z,4.50
2022-10-01T02:59:49.387Z,3.55
2022-10-01T03:04:51.401Z,4.38
2022-10-01T03:09:53.207Z,4.72
2022-10-01T03:14:54.864Z,4.75
2022-10-01T03:19:56.692Z,4.97
2022-10-01T03:24:58.259Z,5.40
2022-10-01T03:29:59.896Z,5.07
2022-10-01T03:35:01.790Z,4.57
2022-10-01T03:40:03.746Z,6.22
2022-10-01T03:45:05.426Z,5.45
2022-10-01T03:50:08.029Z,4.88
2022-10-01T03:55:09.638Z,5.78
2022-10-01T04:00:12.038Z,4.85
2022-10-01T04:05:14.030Z,5.65
2022-10-01T04:10:15.649Z,4.32
2022-10-01T04:15:17.233Z,5.32
2022-10-01T04:20:19.200Z,4.05
2022-10-01T04:25:20.815Z,3.90
2022-10-01T04:30:22.834Z,3.90
2022-10-01T04:35:25.496Z,4.03
2022-10-01T04:40:27.277Z,3.90
2022-10-01T04:45:28.777Z,4.65
2022-10-01T04:50:30.911Z,4.35
2022-10-01T04:55:32.448Z,3.90
2022-10-01T05:00:34.015Z,4.82
2022-10-01T05:05:35.618Z,4.43
2022-10-01T05:10:37.262Z,4.32
2022-10-01T05:15:38.871Z,4.45
2022-10-01T05:20:40.547Z,4.18
2022-10-01T05:25:42.675Z,3.85
2022-10-01T05:30:44.200Z,3.70
2022-10-01T05:35:45.795Z,3.58
2022-10-01T05:40:47.632Z,3.72
2022-10-01T05:45:51.136Z,3.28
2022-10-01T05:50:54.017Z,3.17
2022-10-01T05:55:55.528Z,2.50
2022-10-01T06:00:57.070Z,3.70
2022-10-01T06:05:58.634Z,3.30
2022-10-01T06:11:02.299Z,2.03
2022-10-01T06:16:04.054Z,3.53
2022-10-01T06:21:06.014Z,3.10
2022-10-01T06:26:08.675Z,3.50
2022-10-01T06:31:11.649Z,2.90
2022-10-01T06:36:13.192Z,3.40
2022-10-01T06:41:14.817Z,3.40
2022-10-01T06:46:16.467Z,3.00
2022-10-01T06:51:38.025Z,2.70
2022-10-01T06:56:42.827Z,2.88
2022-10-01T07:01:44.408Z,2.90
2022-10-01T07:06:45.952Z,2.53
2022-10-01T07:11:47.480Z,2.97
2022-10-01T07:16:49.057Z,2.58
2022-10-01T07:21:50.966Z,3.30
2022-10-01T07:26:55.604Z,3.22
2022-10-01T07:31:59.559Z,2.53
2022-10-01T07:37:01.517Z,3.25
2022-10-01T07:42:04.211Z,3.38
2022-10-01T07:47:05.807Z,4.35
2022-10-01T07:52:12.365Z,3.63
2022-10-01T07:57:15.290Z,3.55
2022-10-01T08:02:18.977Z,4.00
2022-10-01T08:07:21.150Z,3.90
2022-10-01T08:12:24.378Z,3.95
2022-10-01T08:17:29.394Z,4.38
2022-10-01T08:22:31.370Z,4.22
2022-10-01T08:27:32.903Z,3.78
2022-10-01T08:32:34.452Z,4.32
2022-10-01T08:37:36.206Z,4.00
2022-10-01T08:42:59.317Z,3.65
2022-10-01T08:48:09.135Z,3.70
2022-10-01T08:58:45.832Z,3.60
2022-10-01T09:03:47.924Z,3.17
2022-10-01T09:08:57.703Z,3.30
2022-10-01T09:14:32.893Z,3.65
2022-10-01T09:19:58.958Z,3.55
2022-10-01T09:25:20.471Z,3.03
2022-10-01T09:30:24.750Z,2.65
2022-10-01T09:35:37.028Z,2.30
2022-10-01T09:40:45.883Z,2.53
2022-10-01T09:45:47.708Z,2.30
2022-10-01T09:50:58.876Z,2.15
2022-10-01T09:56:08.380Z,1.60
2022-10-01T10:01:40.044Z,1.67
2022-10-01T10:06:41.708Z,1.90
2022-10-01T10:11:44.314Z,1.60
2022-10-01T10:16:48.369Z,2.08
2022-10-01T10:21:53.525Z,1.65
2022-10-01T10:26:58.948Z,1.75
2022-10-01T10:32:07.168Z,1.60
2022-10-01T10:37:18.169Z,1.70
2022-10-01T10:42:22.265Z,1.80
2022-10-01T10:47:26.068Z,1.63
2022-10-01T10:52:30.393Z,1.45
2022-10-01T10:57:34.305Z,1.60
2022-10-01T11:02:35.881Z,1.17
2022-10-01T11:07:37.376Z,1.33
2022-10-01T11:13:18.833Z,1.35
2022-10-01T11:18:42.219Z,1.27
2022-10-01T11:24:02.136Z,1.20
2022-10-01T11:34:50.441Z,1.23
2022-10-01T11:39:56.365Z,1.00
2022-10-01T11:45:04.645Z,1.08
2022-10-01T11:50:14.938Z,1.30
2022-10-01T11:55:46.641Z,1.65
2022-10-01T12:01:08.285Z,1.10
2022-10-01T12:06:14.643Z,0.75
2022-10-01T12:11:29.360Z,1.38
2022-10-01T12:16:40.764Z,0.68
2022-10-01T12:22:11.643Z,0.50
2022-10-01T12:27:41.990Z,0.50
2022-10-01T12:32:52.242Z,0.65
2022-10-01T12:38:25.984Z,0.60
2022-10-01T12:43:57.125Z,0.43
2022-10-01T12:49:57.112Z,0.40
2022-10-01T12:55:29.288Z,0.70
2022-10-01T13:00:40.731Z,0.55
2022-10-01T13:06:19.155Z,0.75
2022-10-01T13:12:00.734Z,0.57
2022-10-01T13:17:20.207Z,0.65
2022-10-01T13:22:33.918Z,0.77
2022-10-01T13:27:44.629Z,0.60
2022-10-01T13:32:58.000Z,0.90
2022-10-01T13:37:59.791Z,0.90
2022-10-01T13:43:23.605Z,0.70
2022-10-01T13:48:34.687Z,1.02
2022-10-01T13:53:45.029Z,1.00
2022-10-01T13:58:46.726Z,0.93
2022-10-01T14:04:06.521Z,0.90
2022-10-01T14:09:13.940Z,1.08
2022-10-01T14:14:54.190Z,1.20
2022-10-01T14:19:57.365Z,1.50
2022-10-01T14:25:29.103Z,1.00
2022-10-01T14:30:44.528Z,0.88
2022-10-01T14:36:15.331Z,1.00
2022-10-01T14:41:19.395Z,0.73
2022-10-01T14:46:21.137Z,0.93
2022-10-01T14:51:29.055Z,0.90
2022-10-01T14:56:30.755Z,0.85
2022-10-01T15:01:32.624Z,1.30
2022-10-01T15:06:42.103Z,1.30
2022-10-01T15:11:46.609Z,3.38
2022-10-01T15:16:49.289Z,1.42
2022-10-01T15:21:56.571Z,2.53
2022-10-01T15:26:58.753Z,1.38
2022-10-01T15:32:02.916Z,1.30
2022-10-01T15:37:05.287Z,1.20
2022-10-01T15:42:28.147Z,2.05
2022-10-01T15:47:37.711Z,1.38
2022-10-01T15:52:51.785Z,1.17
2022-10-01T15:58:15.575Z,1.35
2022-10-01T16:03:25.443Z,0.95
2022-10-01T16:13:39.030Z,1.42
2022-10-01T16:18:42.094Z,0.85
2022-10-01T16:23:49.307Z,0.90
2022-10-01T16:28:56.286Z,0.95
2022-10-01T16:33:58.358Z,0.95
2022-10-01T16:39:00.179Z,1.20
2022-10-01T16:44:03.707Z,0.98
2022-10-01T16:49:14.044Z,1.00
2022-10-01T16:54:24.095Z,1.00
2022-10-01T16:59:26.074Z,1.00
2022-10-01T17:04:33.525Z,1.00
2022-10-01T17:09:35.932Z,1.05
2022-10-01T17:14:37.747Z,0.73
2022-10-01T17:19:39.368Z,1.15
2022-10-01T17:24:40.925Z,2.60
2022-10-01T17:29:42.739Z,3.83
2022-10-01T17:34:45.517Z,4.50
2022-10-01T17:39:47.183Z,3.47
2022-10-01T17:44:48.732Z,5.47
2022-10-01T17:49:50.243Z,2.58
2022-10-01T17:54:52.281Z,2.95
2022-10-01T17:59:53.872Z,2.72
2022-10-01T18:04:55.336Z,1.35
2022-10-01T18:09:56.875Z,1.02
2022-10-01T18:14:58.395Z,1.75
2022-10-01T18:20:00.103Z,1.80
2022-10-01T18:25:03.387Z,1.50
2022-10-01T18:30:05.203Z,1.42
2022-10-01T18:35:21.240Z,2.10
2022-10-01T18:40:34.600Z,1.80
2022-10-01T18:45:48.422Z,2.28
2022-10-01T18:51:09.117Z,2.03
2022-10-01T18:56:40.140Z,2.45
2022-10-01T19:01:57.139Z,2.20
2022-10-01T19:07:09.723Z,3.35
2022-10-01T19:12:43.676Z,2.10
2022-10-01T19:18:01.554Z,2.05
2022-10-01T19:23:03.049Z,2.83
2022-10-01T19:28:14.257Z,2.40
2022-10-01T19:33:20.878Z,1.85
2022-10-01T19:38:32.520Z,2.35
2022-10-01T19:43:47.782Z,1.80
2022-10-01T19:48:52.366Z,2.85
2022-10-01T19:54:00.784Z,1.92
2022-10-01T19:59:10.687Z,2.53
2022-10-01T20:09:43.215Z,2.80
2022-10-01T20:15:08.356Z,1.63
2022-10-01T20:20:25.476Z,2.15
2022-10-01T20:26:01.359Z,2.75
2022-10-01T20:31:28.039Z,2.00
2022-10-01T20:36:48.526Z,2.05
2022-10-01T20:41:53.554Z,2.17
2022-10-01T20:47:02.195Z,1.90
2022-10-01T20:52:51.607Z,1.58
2022-10-01T20:57:59.521Z,2.20
2022-10-01T21:03:07.135Z,1.52
2022-10-01T21:08:43.418Z,1.83
2022-10-01T21:14:00.531Z,2.15
2022-10-01T21:19:17.455Z,1.80
2022-10-01T21:24:37.845Z,3.92
2022-10-01T21:30:18.616Z,1.80
2022-10-01T21:35:41.790Z,1.58
2022-10-01T21:41:14.156Z,1.95
2022-10-01T21:46:32.728Z,2.33
2022-10-01T21:51:34.570Z,2.85
2022-10-01T21:56:50.984Z,2.92
2022-10-01T22:02:05.164Z,1.75
2022-10-01T22:07:31.008Z,2.42
2022-10-01T22:12:36.865Z,2.63
2022-10-01T22:17:39.491Z,2.13
2022-10-01T22:22:42.080Z,1.77
2022-10-01T22:27:53.169Z,2.70
2022-10-01T22:33:13.202Z,1.90
2022-10-01T22:38:32.992Z,2.20
2022-10-01T22:43:34.807Z,2.00
2022-10-01T22:48:54.993Z,1.88
2022-10-01T22:54:24.006Z,2.03
2022-10-01T22:59:54.806Z,1.55
2022-10-01T23:05:11.129Z,1.85
2022-10-01T23:10:15.868Z,1.65
2022-10-01T23:15:41.213Z,2.13
2022-10-01T23:21:20.260Z,1.50
2022-10-01T23:26:35.248Z,1.90
2022-10-01T23:32:10.381Z,1.65
2022-10-01T23:37:29.334Z,2.25
2022-10-01T23:42:42.430Z,1.50
2022-10-01T23:47:57.413Z,1.80
2022-10-01T23:53:14.795Z,1.50
2022-10-01T23:58:18.648Z,1.00
